Time;durP1;ratioP1;P1;durP2;ratioP2;P2;SDS_P1;SDS_P2;PMS_P1;PMS_P2;Temp;Humidity;BMP_temperature;BMP_pressure;BME280_temperature;BME280_humidity;BME280_pressure;Samples;Min_cycle;Max_cycle;Signal;HPM_P1;HPM_P2
2023/12/18 00:00:48;;;;;;;;;;;;;;;2.76;51.25;97126.59;4995217;28;20141;-64
2023/12/18 00:03:14;;;;;;;;;;;;;;;2.72;50.69;97133.81;4993916;28;19953;-65
2023/12/18 00:05:40;;;;;;;;;;;;;;;2.75;50.51;97115.22;4994017;28;19917;-64
2023/12/18 00:08:05;;;;;;;;;;;;;;;2.61;51.23;97108.16;4989070;28;20481;-66
2023/12/18 00:10:30;;;;;;;;;;;;;;;2.52;51.01;97103.44;4993529;28;19921;-64
2023/12/18 00:12:56;;;;;;;;;;;;;;;2.47;51.49;97111.59;4987784;28;19926;-63
2023/12/18 00:15:21;;;;;;;;;;;;;;;2.42;51.03;97112.78;4990546;28;19996;-65
2023/12/18 00:17:46;;;;;;;;;;;;;;;2.30;50.74;97109.09;4994549;28;19965;-66
2023/12/18 00:20:11;;;;;;;;;;;;;;;2.24;50.46;97113.78;4988844;28;19929;-64
2023/12/18 00:22:37;;;;;;;;;;;;;;;2.20;50.89;97111.41;4996208;28;19947;-65
2023/12/18 00:25:02;;;;;;;;;;;;;;;2.20;51.27;97104.38;4991153;28;19925;-66
2023/12/18 00:27:27;;;;;;;;;;;;;;;2.12;51.45;97114.47;4995508;28;19930;-65
2023/12/18 00:29:53;;;;;;;;;;;;;;;1.37;52.16;97105.44;4998564;28;19952;-63
2023/12/18 00:32:18;;;;;;;;;;;;;;;1.01;54.95;97109.94;4998464;28;19975;-61
2023/12/18 00:34:43;;;;;;;;;;;;;;;1.31;54.06;97100.50;4996360;28;20285;-62
2023/12/18 00:37:08;;;;;;;;;;;;;;;1.44;53.38;97084.94;5001831;28;20433;-63
2023/12/18 00:39:34;;;;;;;;;;;;;;;1.55;52.45;97082.59;4998376;28;20029;-62
2023/12/18 00:41:59;;;;;;;;;;;;;;;1.72;53.46;97088.69;4999477;28;19932;-64
2023/12/18 00:44:25;;;;;;;;;;;;;;;1.70;52.43;97094.00;4997653;28;19925;-61
2023/12/18 00:46:50;;;;;;;;;;;;;;;1.65;53.22;97093.44;5000346;28;19928;-62
2023/12/18 00:49:15;;;;;;;;;;;;;;;1.64;51.89;97090.88;4998280;28;20410;-61
2023/12/18 00:51:40;;;;;;;;;;;;;;;1.69;52.60;97100.22;4997247;28;19932;-63
2023/12/18 00:54:06;;;;;;;;;;;;;;;1.55;52.23;97089.63;4996481;28;19926;-63
2023/12/18 00:56:32;;;;;;;;;;;;;;;1.58;52.78;97087.69;4998347;28;19947;-62
2023/12/18 00:58:57;;;;;;;;;;;;;;;1.56;51.54;97086.91;4996973;28;19929;-63
2023/12/18 01:01:22;;;;;;;;;;;;;;;1.56;51.97;97083.41;5001121;28;20578;-63
2023/12/18 01:03:47;;;;;;;;;;;;;;;1.50;51.56;97084.59;4998506;28;19925;-63
2023/12/18 01:06:13;;;;;;;;;;;;;;;1.38;51.35;97086.13;4998467;28;19922;-63
2023/12/18 01:08:38;;;;;;;;;;;;;;;1.31;51.80;97085.59;4994898;28;20370;-63
2023/12/18 01:11:03;;;;;;;;;;;;;;;1.31;52.15;97084.75;4993302;28;20198;-63
2023/12/18 01:13:28;;;;;;;;;;;;;;;1.05;51.42;97085.22;4996005;28;19931;-63
2023/12/18 01:15:56;;;;;;;;;;;;;;;1.04;52.27;97088.78;5004358;28;19949;-63
2023/12/18 01:18:21;;;;;;;;;;;;;;;0.98;52.27;97081.22;5000608;28;19925;-62
2023/12/18 01:20:47;;;;;;;;;;;;;;;1.03;52.68;97083.63;4996586;28;20235;-62
2023/12/18 01:23:12;;;;;;;;;;;;;;;0.97;52.35;97082.16;5001101;28;19932;-62
2023/12/18 01:25:37;;;;;;;;;;;;;;;0.61;54.44;97088.41;4997433;28;19925;-60
2023/12/18 01:28:02;;;;;;;;;;;;;;;0.55;56.04;97082.53;4999793;28;20566;-63
2023/12/18 01:30:28;;;;;;;;;;;;;;;0.77;54.80;97084.06;4997810;28;19921;-63
2023/12/18 01:32:53;;;;;;;;;;;;;;;0.81;53.94;97084.75;4998763;28;19945;-63
2023/12/18 01:35:18;;;;;;;;;;;;;;;0.78;52.76;97090.16;4994527;28;19932;-61
2023/12/18 01:37:44;;;;;;;;;;;;;;;0.74;51.68;97081.59;4997427;28;20009;-62
2023/12/18 01:40:09;;;;;;;;;;;;;;;0.66;52.93;97092.50;4997571;28;20003;-61
2023/12/18 01:42:34;;;;;;;;;;;;;;;0.72;53.25;97086.09;4995465;28;20514;-63
2023/12/18 01:45:00;;;;;;;;;;;;;;;0.70;52.54;97090.56;4997203;28;20163;-63
2023/12/18 01:47:25;;;;;;;;;;;;;;;0.72;53.26;97088.72;4997296;28;19925;-62
2023/12/18 01:49:50;;;;;;;;;;;;;;;0.71;52.93;97079.13;4991319;28;19928;-62
2023/12/18 01:52:16;;;;;;;;;;;;;;;0.77;53.38;97077.97;4990260;28;20431;-63
2023/12/18 01:54:41;;;;;;;;;;;;;;;0.70;53.26;97080.06;4995173;28;20302;-61
2023/12/18 01:57:06;;;;;;;;;;;;;;;0.70;52.82;97077.44;4999221;28;20454;-62
2023/12/18 01:59:31;;;;;;;;;;;;;;;0.63;53.24;97074.28;4997067;28;19936;-63
2023/12/18 02:01:57;;;;;;;;;;;;;;;0.68;53.39;97072.28;4997192;28;20040;-63
2023/12/18 02:04:22;;;;;;;;;;;;;;;0.69;53.40;97086.25;4998116;28;19925;-62
2023/12/18 02:06:47;;;;;;;;;;;;;;;0.77;54.25;97075.34;4996899;28;20468;-62
2023/12/18 02:09:13;;;;;;;;;;;;;;;0.76;53.24;97073.66;4998269;28;19925;-63
2023/12/18 02:11:38;;;;;;;;;;;;;;;0.73;53.13;97075.50;4994972;28;19921;-62
2023/12/18 02:14:04;;;;;;;;;;;;;;;0.68;53.64;97077.50;4996277;28;20587;-63
2023/12/18 02:16:29;;;;;;;;;;;;;;;0.58;52.22;97086.81;4996739;28;19933;-62
2023/12/18 02:18:54;;;;;;;;;;;;;;;0.58;51.99;97089.44;4999078;28;19936;-63
2023/12/18 02:21:20;;;;;;;;;;;;;;;0.47;51.40;97092.56;4994872;28;19926;-63
2023/12/18 02:23:48;;;;;;;;;;;;;;;0.44;52.38;97101.44;4993708;28;19979;-63
2023/12/18 02:26:15;;;;;;;;;;;;;;;0.44;52.78;97100.59;4996697;28;19929;-63
2023/12/18 02:28:41;;;;;;;;;;;;;;;0.37;52.59;97091.38;4996308;28;20267;-62
2023/12/18 02:31:06;;;;;;;;;;;;;;;0.37;52.53;97097.44;4995145;28;19933;-63
2023/12/18 02:33:31;;;;;;;;;;;;;;;0.39;52.91;97094.75;4994562;28;19980;-63
2023/12/18 02:35:56;;;;;;;;;;;;;;;0.37;52.91;97091.38;4996478;28;20518;-61
2023/12/18 02:38:21;;;;;;;;;;;;;;;0.31;53.51;97082.88;4997270;28;20008;-63
2023/12/18 02:40:47;;;;;;;;;;;;;;;0.34;53.54;97074.84;4995495;28;19940;-63
2023/12/18 02:43:12;;;;;;;;;;;;;;;0.39;53.55;97082.50;4995272;28;19926;-62
2023/12/18 02:45:37;;;;;;;;;;;;;;;0.38;53.63;97087.81;4995662;28;19997;-63
2023/12/18 02:48:04;;;;;;;;;;;;;;;0.32;53.25;97094.22;4996626;28;20306;-64
2023/12/18 02:50:29;;;;;;;;;;;;;;;0.31;53.15;97087.28;4994286;28;19925;-62
2023/12/18 02:52:54;;;;;;;;;;;;;;;0.31;52.62;97082.03;4989074;28;20382;-64
2023/12/18 02:55:20;;;;;;;;;;;;;;;0.27;52.80;97088.34;4996225;28;20039;-64
2023/12/18 02:57:45;;;;;;;;;;;;;;;0.18;51.22;97077.38;4992274;28;19917;-63
2023/12/18 03:00:10;;;;;;;;;;;;;;;0.19;52.50;97070.38;4996435;28;19925;-64
2023/12/18 03:02:36;;;;;;;;;;;;;;;0.12;51.72;97069.00;4996230;28;20028;-63
2023/12/18 03:05:02;;;;;;;;;;;;;;;0.14;52.04;97067.16;4995874;28;19922;-64
2023/12/18 03:07:27;;;;;;;;;;;;;;;0.14;52.51;97051.44;4996030;28;20271;-64
2023/12/18 03:09:52;;;;;;;;;;;;;;;0.20;53.80;97067.69;4996239;28;20553;-64
2023/12/18 03:12:17;;;;;;;;;;;;;;;0.31;53.95;97059.28;4994953;28;19926;-63
2023/12/18 03:14:43;;;;;;;;;;;;;;;0.38;53.76;97053.75;4995391;28;19929;-64
2023/12/18 03:17:08;;;;;;;;;;;;;;;0.37;54.71;97052.88;4995865;28;19927;-64
2023/12/18 03:19:33;;;;;;;;;;;;;;;0.41;54.85;97051.81;4994958;28;19968;-64
2023/12/18 03:21:59;;;;;;;;;;;;;;;0.52;54.72;97053.03;4994593;28;19970;-65
2023/12/18 03:24:24;;;;;;;;;;;;;;;0.64;54.21;97056.78;4992917;28;20133;-64
2023/12/18 03:26:49;;;;;;;;;;;;;;;0.69;54.56;97049.53;4995916;28;19975;-65
2023/12/18 03:29:15;;;;;;;;;;;;;;;0.66;54.02;97047.94;4995805;28;20058;-64
2023/12/18 03:31:40;;;;;;;;;;;;;;;0.69;54.41;97058.22;4995421;28;19921;-64
2023/12/18 03:34:05;;;;;;;;;;;;;;;0.70;54.29;97066.94;4992682;28;19960;-64
2023/12/18 03:36:30;;;;;;;;;;;;;;;0.67;53.07;97059.25;4995696;28;19988;-63
2023/12/18 03:38:56;;;;;;;;;;;;;;;0.63;53.05;97058.56;4995292;28;19930;-64
2023/12/18 03:41:21;;;;;;;;;;;;;;;0.62;53.42;97050.78;4995720;28;20174;-64
2023/12/18 03:43:46;;;;;;;;;;;;;;;0.55;52.60;97056.34;4994838;28;20324;-63
2023/12/18 03:46:11;;;;;;;;;;;;;;;0.52;53.07;97061.75;4995556;28;19999;-64
2023/12/18 03:48:37;;;;;;;;;;;;;;;0.54;53.45;97054.66;4995099;28;19970;-63
2023/12/18 03:51:02;;;;;;;;;;;;;;;0.48;52.63;97054.94;4988379;28;19994;-64
2023/12/18 03:53:28;;;;;;;;;;;;;;;0.44;52.29;97050.78;4989182;28;19918;-63
2023/12/18 03:55:53;;;;;;;;;;;;;;;0.37;51.94;97046.81;4994100;28;20177;-65
2023/12/18 03:58:18;;;;;;;;;;;;;;;0.26;51.35;97040.34;4994856;28;19932;-64
2023/12/18 04:00:44;;;;;;;;;;;;;;;0.22;52.12;97036.19;4994738;28;19932;-64
2023/12/18 04:03:09;;;;;;;;;;;;;;;0.20;52.23;97036.25;4993370;28;20063;-63
2023/12/18 04:05:34;;;;;;;;;;;;;;;0.10;51.43;97031.56;4994207;28;19943;-63
2023/12/18 04:11:03;;;;;;;;;;;;;;;-0.05;52.78;97028.78;4992978;28;19975;-65
2023/12/18 04:13:28;;;;;;;;;;;;;;;-0.06;52.64;97025.31;4993706;28;19953;-64
2023/12/18 04:15:53;;;;;;;;;;;;;;;0.03;53.31;97023.16;4994560;28;20449;-64
2023/12/18 04:18:19;;;;;;;;;;;;;;;0.06;53.16;97023.88;4994730;28;19925;-64
2023/12/18 04:20:44;;;;;;;;;;;;;;;0.15;53.58;97021.69;4994034;28;20007;-64
2023/12/18 04:23:09;;;;;;;;;;;;;;;0.13;54.47;97024.41;4993583;28;20096;-64
2023/12/18 04:25:34;;;;;;;;;;;;;;;0.14;54.31;97015.59;4994515;28;20406;-64
2023/12/18 04:27:59;;;;;;;;;;;;;;;0.14;53.99;97020.00;4994820;28;19986;-64
2023/12/18 04:30:25;;;;;;;;;;;;;;;0.02;53.22;97022.31;4995193;28;19989;-64
2023/12/18 04:32:50;;;;;;;;;;;;;;;-0.13;55.24;97023.09;4995544;28;19956;-64
2023/12/18 04:35:15;;;;;;;;;;;;;;;0.01;55.29;97031.13;4993152;28;20408;-64
2023/12/18 04:37:41;;;;;;;;;;;;;;;0.12;54.66;97027.09;4995311;28;19952;-64
2023/12/18 04:40:06;;;;;;;;;;;;;;;0.24;53.94;97023.84;4994888;28;20029;-64
2023/12/18 04:42:31;;;;;;;;;;;;;;;0.21;53.43;97024.03;4995011;28;20391;-64
2023/12/18 04:44:57;;;;;;;;;;;;;;;0.19;53.45;97013.63;4994314;28;20009;-64
2023/12/18 04:47:22;;;;;;;;;;;;;;;0.22;53.28;97012.59;4993082;28;19940;-64
2023/12/18 04:49:48;;;;;;;;;;;;;;;0.25;53.94;97011.59;4995107;28;19948;-63
2023/12/18 04:52:13;;;;;;;;;;;;;;;0.27;53.98;96999.28;4993640;28;20027;-64
2023/12/18 04:54:38;;;;;;;;;;;;;;;0.34;53.86;96998.00;4994418;28;20018;-64
2023/12/18 04:57:03;;;;;;;;;;;;;;;0.34;54.04;97000.63;4994029;28;19959;-64
2023/12/18 04:59:29;;;;;;;;;;;;;;;0.38;53.90;96989.06;4994401;28;20126;-64
2023/12/18 05:01:54;;;;;;;;;;;;;;;0.39;53.67;96987.31;4993481;28;20357;-64
2023/12/18 05:04:19;;;;;;;;;;;;;;;0.42;53.29;96989.78;4994528;28;19929;-63
2023/12/18 05:06:44;;;;;;;;;;;;;;;0.43;53.51;96987.06;4994838;28;19983;-64
2023/12/18 05:09:10;;;;;;;;;;;;;;;0.41;53.55;96991.53;4994083;28;20011;-63
2023/12/18 05:11:35;;;;;;;;;;;;;;;0.42;53.40;96993.25;4992956;28;20436;-63
2023/12/18 05:14:00;;;;;;;;;;;;;;;0.34;53.45;96991.00;4995222;28;20263;-62
2023/12/18 05:16:25;;;;;;;;;;;;;;;0.27;53.04;96994.03;4997776;28;19953;-62
2023/12/18 05:18:51;;;;;;;;;;;;;;;0.20;53.47;96996.09;4998344;28;19936;-63
2023/12/18 05:27:33;;;;;;;;;;;;;;;0.02;53.14;96988.28;4977696;28;20625;-62
2023/12/18 05:29:59;;;;;;;;;;;;;;;-0.06;53.26;96998.31;4977116;28;20303;-62
2023/12/18 05:32:24;;;;;;;;;;;;;;;-0.07;53.79;96996.59;4978468;28;20423;-63
2023/12/18 05:34:49;;;;;;;;;;;;;;;-0.03;54.05;96997.28;4977864;28;19936;-63
2023/12/18 05:37:14;;;;;;;;;;;;;;;-0.13;53.64;96999.53;4978125;28;20224;-63
2023/12/18 05:39:40;;;;;;;;;;;;;;;-0.05;54.41;96989.50;4978349;28;19968;-63
2023/12/18 05:42:05;;;;;;;;;;;;;;;-0.08;54.18;96987.03;4978760;28;20468;-63
2023/12/18 05:44:30;;;;;;;;;;;;;;;-0.25;54.07;96986.13;4977790;28;20254;-63
2023/12/18 05:46:56;;;;;;;;;;;;;;;-0.22;54.85;96985.13;4976350;28;20199;-63
2023/12/18 05:49:21;;;;;;;;;;;;;;;-0.07;54.73;96986.97;4978315;28;19966;-63
2023/12/18 05:51:46;;;;;;;;;;;;;;;-0.07;54.16;96986.97;4972809;28;19970;-62
2023/12/18 05:54:11;;;;;;;;;;;;;;;-0.14;56.04;96984.75;4978286;28;19972;-63
2023/12/18 05:56:37;;;;;;;;;;;;;;;-0.13;55.30;96983.81;4977988;28;19936;-62
2023/12/18 05:59:02;;;;;;;;;;;;;;;0.01;54.78;96996.22;4978054;28;20336;-63
2023/12/18 06:01:27;;;;;;;;;;;;;;;-0.23;54.50;96997.34;4977399;28;19933;-63
2023/12/18 06:03:52;;;;;;;;;;;;;;;-0.13;55.04;97002.97;4978154;28;20321;-62
2023/12/18 06:06:18;;;;;;;;;;;;;;;-0.05;55.23;96999.97;4977917;28;19922;-63
2023/12/18 06:08:43;;;;;;;;;;;;;;;-0.01;54.68;96996.28;4977693;28;20527;-63
2023/12/18 06:11:08;;;;;;;;;;;;;;;-0.09;53.73;96998.44;4975554;28;20046;-61
2023/12/18 06:13:33;;;;;;;;;;;;;;;-0.08;54.49;96994.91;4977519;28;19921;-63
2023/12/18 06:15:59;;;;;;;;;;;;;;;-0.01;53.92;96995.44;4977819;28;20013;-63
2023/12/18 06:18:24;;;;;;;;;;;;;;;-0.12;54.08;96985.50;4977087;28;19959;-63
2023/12/18 06:20:50;;;;;;;;;;;;;;;-0.01;54.26;96987.56;4976287;28;20057;-63
2023/12/18 06:23:15;;;;;;;;;;;;;;;-0.01;54.13;96992.81;4977662;28;20225;-64
2023/12/18 06:25:40;;;;;;;;;;;;;;;0.05;54.06;97003.84;4977313;28;19929;-64
2023/12/18 06:28:05;;;;;;;;;;;;;;;0.00;54.60;97005.81;4982125;28;19968;-64
2023/12/18 06:30:30;;;;;;;;;;;;;;;-0.03;53.85;97007.75;4997036;28;20169;-64
2023/12/18 06:32:56;;;;;;;;;;;;;;;-0.12;53.20;96999.44;4996523;28;19928;-64
2023/12/18 06:35:21;;;;;;;;;;;;;;;-0.14;53.71;97003.06;4987578;28;20058;-65
2023/12/18 06:37:46;;;;;;;;;;;;;;;-0.13;53.56;97007.38;4992947;28;19936;-65
2023/12/18 06:40:12;;;;;;;;;;;;;;;-0.10;53.87;97005.44;4992587;28;19990;-64
2023/12/18 06:42:37;;;;;;;;;;;;;;;-0.16;53.60;97015.38;4988262;28;19939;-65
2023/12/18 06:45:02;;;;;;;;;;;;;;;-0.24;53.48;97006.13;4991169;28;19983;-66
2023/12/18 06:47:29;;;;;;;;;;;;;;;-0.25;53.78;97020.16;4984946;28;19956;-65
2023/12/18 06:49:54;;;;;;;;;;;;;;;-0.26;53.92;97004.50;4996680;28;20806;-64
2023/12/18 06:52:19;;;;;;;;;;;;;;;-0.33;54.27;97024.91;4982231;28;19982;-66
2023/12/18 06:54:44;;;;;;;;;;;;;;;-0.34;53.60;97020.63;4990436;28;20207;-66
2023/12/18 06:57:11;;;;;;;;;;;;;;;-0.41;54.37;97008.75;4989527;28;19940;-64
2023/12/18 06:59:37;;;;;;;;;;;;;;;-0.43;55.24;97009.66;4993098;28;19929;-64
2023/12/18 07:02:03;;;;;;;;;;;;;;;-0.35;54.77;97014.53;4989580;28;20305;-64
2023/12/18 07:04:28;;;;;;;;;;;;;;;-0.31;54.66;97008.22;4990353;28;19952;-66
2023/12/18 07:06:53;;;;;;;;;;;;;;;-0.32;54.86;97010.91;4990076;28;19986;-64
2023/12/18 07:09:18;;;;;;;;;;;;;;;-0.37;54.94;97015.53;4988999;28;20170;-65
2023/12/18 07:11:44;;;;;;;;;;;;;;;-0.35;53.51;97016.28;4993217;28;19926;-64
2023/12/18 07:14:09;;;;;;;;;;;;;;;-0.40;54.35;97016.53;4996129;28;19933;-66
2023/12/18 07:16:35;;;;;;;;;;;;;;;-0.41;54.57;97020.03;4993528;28;20009;-64
2023/12/18 07:19:00;;;;;;;;;;;;;;;-0.49;52.88;97016.94;4990628;28;20145;-65
2023/12/18 07:21:25;;;;;;;;;;;;;;;-0.46;54.60;97020.28;4991802;28;19961;-64
2023/12/18 07:23:51;;;;;;;;;;;;;;;-0.47;53.83;97015.94;4995885;28;20491;-64
2023/12/18 07:26:16;;;;;;;;;;;;;;;-0.51;53.44;97014.41;4994634;28;19926;-66
2023/12/18 07:28:42;;;;;;;;;;;;;;;-0.54;54.31;97013.72;4994730;28;19983;-64
2023/12/18 07:31:08;;;;;;;;;;;;;;;-0.70;54.84;97020.50;4990557;28;20437;-64
2023/12/18 07:33:35;;;;;;;;;;;;;;;-0.55;54.87;97012.84;4994540;28;19928;-65
2023/12/18 07:36:00;;;;;;;;;;;;;;;-0.50;54.67;97015.25;4993036;28;19929;-64
2023/12/18 07:38:25;;;;;;;;;;;;;;;-0.48;57.41;97018.63;4990261;28;19996;-64
2023/12/18 07:40:50;;;;;;;;;;;;;;;-0.43;54.57;97011.44;4995895;28;19968;-65
2023/12/18 07:43:16;;;;;;;;;;;;;;;-0.47;54.34;97002.88;4995748;28;20155;-65
2023/12/18 07:45:41;;;;;;;;;;;;;;;-0.43;54.23;97003.59;4988484;28;19984;-65
2023/12/18 07:48:06;;;;;;;;;;;;;;;-0.43;53.94;97007.03;4990898;28;19933;-64
2023/12/18 07:50:32;;;;;;;;;;;;;;;-0.50;52.92;97002.19;4994540;28;19967;-64
2023/12/18 07:52:57;;;;;;;;;;;;;;;-0.47;53.55;97007.28;4987666;28;19929;-65
2023/12/18 07:55:22;;;;;;;;;;;;;;;-0.46;54.11;97009.81;4993213;28;19957;-64
2023/12/18 07:57:47;;;;;;;;;;;;;;;-0.41;54.74;97008.75;4991858;28;19929;-64
2023/12/18 08:00:13;;;;;;;;;;;;;;;-0.35;54.03;97013.66;4985558;28;20196;-64
2023/12/18 08:02:39;;;;;;;;;;;;;;;-0.29;54.34;97013.38;4992671;28;19952;-64
2023/12/18 08:05:04;;;;;;;;;;;;;;;-0.25;53.74;97014.06;4987311;28;19933;-64
2023/12/18 08:07:29;;;;;;;;;;;;;;;-0.22;54.31;97012.16;4987817;28;20207;-64
2023/12/18 08:09:54;;;;;;;;;;;;;;;-0.39;59.79;97017.34;4987290;28;19964;-64
2023/12/18 08:12:20;;;;;;;;;;;;;;;-0.45;59.27;97015.88;4989635;28;19929;-64
2023/12/18 08:14:45;;;;;;;;;;;;;;;-0.19;57.71;97019.81;4993897;28;19925;-65
2023/12/18 08:17:11;;;;;;;;;;;;;;;-0.05;55.81;97015.69;4989453;28;19984;-64
2023/12/18 08:19:36;;;;;;;;;;;;;;;-0.01;54.88;97009.38;4988427;28;19933;-65
2023/12/18 08:22:01;;;;;;;;;;;;;;;0.01;55.26;97017.16;4988443;28;20461;-64
2023/12/18 08:24:27;;;;;;;;;;;;;;;0.05;56.33;97009.09;4982858;28;20000;-64
2023/12/18 08:26:52;;;;;;;;;;;;;;;0.25;55.28;97007.22;4992426;28;19922;-64
2023/12/18 08:29:17;;;;;;;;;;;;;;;-0.04;54.74;97009.53;4984546;28;19930;-65
2023/12/18 08:31:43;;;;;;;;;;;;;;;0.03;54.25;97008.28;4989142;28;19959;-64
2023/12/18 08:34:08;;;;;;;;;;;;;;;-0.12;55.33;97006.44;4993141;28;19968;-64
2023/12/18 08:36:34;;;;;;;;;;;;;;;0.20;55.43;97007.44;4994960;28;20110;-65
2023/12/18 08:39:00;;;;;;;;;;;;;;;0.03;55.68;97010.91;4987971;28;19925;-65
2023/12/18 08:41:25;;;;;;;;;;;;;;;0.23;55.87;97006.44;4987587;28;19940;-65
2023/12/18 08:43:50;;;;;;;;;;;;;;;0.45;53.96;97007.97;4990953;28;19929;-64
2023/12/18 08:46:15;;;;;;;;;;;;;;;0.14;53.85;97010.38;4994232;28;20231;-64
2023/12/18 08:48:41;;;;;;;;;;;;;;;0.47;53.96;97006.94;4992728;28;20009;-65
2023/12/18 08:51:06;;;;;;;;;;;;;;;0.46;53.24;97009.66;4993216;28;20201;-64
2023/12/18 08:53:31;;;;;;;;;;;;;;;0.60;53.52;97011.53;4985011;28;19933;-64
2023/12/18 08:55:56;;;;;;;;;;;;;;;0.71;53.32;97013.59;4990007;28;19944;-65
2023/12/18 08:58:25;;;;;;;;;;;;;;;0.85;52.83;97018.94;4996279;28;19925;-65
2023/12/18 09:00:50;;;;;;;;;;;;;;;1.11;54.00;97018.47;4988879;28;20181;-66
2023/12/18 09:03:15;;;;;;;;;;;;;;;1.17;52.64;97017.28;4989105;28;20428;-64
2023/12/18 09:05:41;;;;;;;;;;;;;;;1.34;53.14;97016.34;4992309;28;20366;-66
2023/12/18 09:08:07;;;;;;;;;;;;;;;1.39;53.28;97009.06;4992736;28;19948;-64
2023/12/18 09:10:33;;;;;;;;;;;;;;;1.53;53.54;97007.47;4994218;28;19930;-65
2023/12/18 09:12:58;;;;;;;;;;;;;;;1.54;52.34;97009.16;4986126;28;19925;-66
2023/12/18 09:15:23;;;;;;;;;;;;;;;1.61;53.11;97008.72;4993071;28;19926;-65
2023/12/18 09:17:48;;;;;;;;;;;;;;;1.71;52.61;97010.84;4996163;28;20337;-64
2023/12/18 09:20:14;;;;;;;;;;;;;;;1.75;52.26;97012.34;4991663;28;19929;-64
2023/12/18 09:22:39;;;;;;;;;;;;;;;1.72;51.59;97015.16;4992546;28;19925;-65
2023/12/18 09:25:04;;;;;;;;;;;;;;;1.80;52.10;97015.56;4998110;28;19930;-64
2023/12/18 09:27:31;;;;;;;;;;;;;;;1.92;50.78;97016.66;4995651;28;20040;-65
2023/12/18 09:29:56;;;;;;;;;;;;;;;2.07;51.58;97009.63;4998095;28;20592;-65
2023/12/18 09:32:22;;;;;;;;;;;;;;;2.18;51.83;96997.66;4990550;28;19933;-65
2023/12/18 09:34:47;;;;;;;;;;;;;;;2.16;49.58;96997.75;4994033;28;19991;-64
2023/12/18 09:37:12;;;;;;;;;;;;;;;2.37;51.33;96998.25;4991765;28;19965;-64
2023/12/18 09:39:40;;;;;;;;;;;;;;;2.43;51.10;96998.81;4994019;28;19936;-64
2023/12/18 09:42:05;;;;;;;;;;;;;;;2.63;50.97;96995.81;4988610;28;20558;-65
2023/12/18 09:44:31;;;;;;;;;;;;;;;2.62;49.11;96993.28;4995515;28;19925;-66
2023/12/18 09:46:59;;;;;;;;;;;;;;;2.66;49.68;96997.44;4992865;28;20395;-64
2023/12/18 09:49:24;;;;;;;;;;;;;;;2.53;48.31;96997.31;4990174;28;19932;-65
2023/12/18 09:51:50;;;;;;;;;;;;;;;2.55;47.77;97000.69;4987880;28;19926;-64
2023/12/18 09:54:16;;;;;;;;;;;;;;;2.66;48.68;96997.44;4989046;28;19964;-64
2023/12/18 09:56:41;;;;;;;;;;;;;;;2.94;50.85;96986.97;4993214;28;20542;-66
2023/12/18 09:59:06;;;;;;;;;;;;;;;2.96;50.37;96995.63;4996916;28;20032;-64
2023/12/18 10:01:33;;;;;;;;;;;;;;;3.03;50.38;96992.50;4996966;28;19956;-64
2023/12/18 10:03:58;;;;;;;;;;;;;;;3.21;51.01;96983.53;4996862;28;19921;-64
2023/12/18 10:06:23;;;;;;;;;;;;;;;2.59;48.12;96983.78;4993094;28;19932;-64
2023/12/18 10:08:50;;;;;;;;;;;;;;;2.93;47.51;96980.03;4991075;28;19992;-64
2023/12/18 10:11:25;;;;;;;;;;;;;;;3.27;48.36;96975.25;4990016;28;19926;-65
2023/12/18 10:13:51;;;;;;;;;;;;;;;2.87;50.10;96984.72;4992918;28;19918;-65
2023/12/18 10:16:16;;;;;;;;;;;;;;;2.92;53.54;96979.16;4988934;28;20869;-64
2023/12/18 10:18:41;;;;;;;;;;;;;;;3.33;47.91;96969.56;4996583;28;20013;-64
2023/12/18 10:21:07;;;;;;;;;;;;;;;3.36;46.74;96966.75;4992761;28;20313;-65
2023/12/18 10:23:35;;;;;;;;;;;;;;;3.74;46.95;96961.75;4992288;28;19948;-64
2023/12/18 10:26:03;;;;;;;;;;;;;;;3.60;46.57;96967.94;4991382;28;19976;-64
2023/12/18 10:28:28;;;;;;;;;;;;;;;3.55;46.39;96969.06;4989142;28;19957;-64
2023/12/18 10:30:54;;;;;;;;;;;;;;;4.00;45.92;96969.69;4994624;28;20140;-64
2023/12/18 10:33:19;;;;;;;;;;;;;;;3.66;46.68;96964.88;4991723;28;19929;-66
2023/12/18 10:35:45;;;;;;;;;;;;;;;3.59;45.67;96967.09;4988672;28;19953;-64
2023/12/18 10:38:10;;;;;;;;;;;;;;;3.55;46.20;96963.78;4993644;28;19922;-66
2023/12/18 10:40:36;;;;;;;;;;;;;;;3.51;45.96;96969.38;4990836;28;19944;-64
2023/12/18 10:43:16;;;;;;;;;;;;;;;3.64;45.89;96962.34;4995348;28;20063;-66
2023/12/18 10:45:42;;;;;;;;;;;;;;;3.39;45.35;96961.28;4988083;28;19925;-66
2023/12/18 10:48:07;;;;;;;;;;;;;;;3.26;45.49;96955.13;4994033;28;20382;-66
2023/12/18 10:50:33;;;;;;;;;;;;;;;3.43;46.10;96957.53;4987866;28;19943;-64
2023/12/18 10:52:58;;;;;;;;;;;;;;;3.17;45.82;96946.88;4986987;28;19925;-64
2023/12/18 10:55:23;;;;;;;;;;;;;;;1.58;49.69;96959.03;4988692;28;20283;-64
2023/12/18 10:57:49;;;;;;;;;;;;;;;2.76;47.27;96950.34;4986949;28;20027;-66
2023/12/18 11:00:15;;;;;;;;;;;;;;;2.87;48.32;96947.91;4994325;28;19926;-66
2023/12/18 11:02:41;;;;;;;;;;;;;;;3.59;48.13;96930.22;4988729;28;20434;-63
2023/12/18 11:05:06;;;;;;;;;;;;;;;3.99;47.31;96936.38;4994865;28;20075;-62
2023/12/18 11:07:31;;;;;;;;;;;;;;;4.47;47.78;96935.75;4990281;28;20019;-64
2023/12/18 11:09:58;;;;;;;;;;;;;;;4.41;46.25;96926.50;4993797;28;19917;-63
2023/12/18 11:12:23;;;;;;;;;;;;;;;4.57;45.98;96925.41;4991466;28;19932;-63
2023/12/18 11:14:51;;;;;;;;;;;;;;;4.89;44.57;96926.69;4996785;28;19918;-63
2023/12/18 11:17:35;;;;;;;;;;;;;;;4.37;42.64;96924.16;4991022;28;20394;-63
2023/12/18 11:20:24;;;;;;;;;;;;;;;4.25;51.71;96928.50;4984303;28;19937;-63
2023/12/18 11:22:51;;;;;;;;;;;;;;;4.46;50.19;96920.91;4988364;28;20180;-62
2023/12/18 11:25:17;;;;;;;;;;;;;;;3.92;44.66;96915.72;4993872;28;20171;-63
2023/12/18 11:27:42;;;;;;;;;;;;;;;4.69;51.53;96907.84;4995639;28;20381;-63
2023/12/18 11:30:24;;;;;;;;;;;;;;;5.00;47.76;96904.84;4996023;28;20235;-62
2023/12/18 11:32:49;;;;;;;;;;;;;;;5.34;50.47;96907.69;4991254;28;20310;-62
2023/12/18 11:35:14;;;;;;;;;;;;;;;5.63;43.04;96907.31;4993522;28;19925;-63
2023/12/18 11:37:41;;;;;;;;;;;;;;;5.91;42.89;96899.94;4992158;28;20207;-63
2023/12/18 11:40:12;;;;;;;;;;;;;;;6.63;46.99;96899.78;4988220;28;20462;-62
2023/12/18 11:42:46;;;;;;;;;;;;;;;7.89;44.24;96887.00;4993361;28;19989;-63
2023/12/18 11:45:13;;;;;;;;;;;;;;;10.70;36.44;96878.03;4992184;28;20472;-64
2023/12/18 11:47:38;;;;;;;;;;;;;;;13.76;31.80;96873.94;4994275;28;19925;-64
2023/12/18 11:50:05;;;;;;;;;;;;;;;14.90;26.80;96868.69;4993215;28;19928;-64
2023/12/18 11:52:30;;;;;;;;;;;;;;;17.25;27.34;96868.06;4987718;28;19929;-64
2023/12/18 11:54:56;;;;;;;;;;;;;;;18.71;22.10;96866.13;4985171;28;20007;-63
2023/12/18 11:57:21;;;;;;;;;;;;;;;19.87;21.96;96860.84;4989236;28;19940;-64
2023/12/18 11:59:47;;;;;;;;;;;;;;;20.81;21.63;96861.78;4993728;28;19986;-62
2023/12/18 12:02:12;;;;;;;;;;;;;;;21.75;19.22;96853.13;4988305;28;19974;-64
2023/12/18 12:04:38;;;;;;;;;;;;;;;21.85;17.42;96847.22;4993345;28;20309;-64
2023/12/18 12:07:03;;;;;;;;;;;;;;;23.03;18.57;96852.94;4992848;28;20525;-63
2023/12/18 12:09:28;;;;;;;;;;;;;;;23.74;18.51;96846.97;4993213;28;19969;-64
2023/12/18 12:11:53;;;;;;;;;;;;;;;20.29;17.98;96849.81;4993344;28;19933;-64
2023/12/18 12:14:19;;;;;;;;;;;;;;;20.20;20.50;96843.78;4994150;28;20098;-67
2023/12/18 12:16:44;;;;;;;;;;;;;;;23.15;18.01;96840.28;4980608;28;20437;-65
2023/12/18 12:19:09;;;;;;;;;;;;;;;24.69;17.75;96834.44;4993573;28;20011;-66
2023/12/18 12:21:35;;;;;;;;;;;;;;;26.08;15.66;96831.81;4988125;28;19941;-65
2023/12/18 12:24:01;;;;;;;;;;;;;;;26.29;14.23;96830.22;4985887;28;20328;-66
2023/12/18 12:26:26;;;;;;;;;;;;;;;23.23;18.71;96816.56;4984310;28;19995;-66
2023/12/18 12:28:51;;;;;;;;;;;;;;;25.30;14.98;96817.69;4991597;28;19937;-65
2023/12/18 12:31:17;;;;;;;;;;;;;;;25.54;15.84;96812.13;4994063;28;20520;-67
2023/12/18 12:33:45;;;;;;;;;;;;;;;25.88;14.99;96810.47;4991163;28;19929;-67
2023/12/18 12:36:10;;;;;;;;;;;;;;;25.99;16.02;96810.38;4987839;28;19926;-66
2023/12/18 12:38:36;;;;;;;;;;;;;;;27.32;13.77;96810.72;4986994;28;19935;-66
2023/12/18 12:41:01;;;;;;;;;;;;;;;27.14;14.82;96806.44;4987549;28;19933;-68
2023/12/18 12:43:26;;;;;;;;;;;;;;;25.27;17.20;96803.69;4991202;28;20422;-66
2023/12/18 12:45:52;;;;;;;;;;;;;;;27.39;15.41;96807.75;4986127;28;19926;-67
2023/12/18 12:48:17;;;;;;;;;;;;;;;28.43;12.47;96805.84;4988718;28;19929;-67
2023/12/18 12:50:42;;;;;;;;;;;;;;;24.44;15.46;96803.72;4994736;28;20497;-66
2023/12/18 12:53:09;;;;;;;;;;;;;;;26.06;16.12;96798.47;4991952;28;19925;-67